Time;durP1;ratioP1;P1;durP2;ratioP2;P2;SDS_P1;SDS_P2;PMS_P1;PMS_P2;Temp;Humidity;BMP_temperature;BMP_pressure;BME280_temperature;BME280_humidity;BME280_pressure;Samples;Min_cycle;Max_cycle;Signal;HPM_P1;HPM_P2
2022/05/16 00:01:21;;;;;;;3.73;1.40;;;15.60;99.90;;;;;;4921604;29;20232;-75
2022/05/16 00:04:05;;;;;;;2.37;1.10;;;15.50;99.90;;;;;;4895558;29;20223;-75
2022/05/16 00:06:49;;;;;;;3.70;1.27;;;15.50;99.90;;;;;;4891462;29;20255;-75
2022/05/16 00:09:34;;;;;;;3.57;1.30;;;15.50;99.90;;;;;;4912222;29;20254;-76
2022/05/16 00:12:18;;;;;;;2.10;1.13;;;15.40;99.90;;;;;;4914955;29;20659;-76
2022/05/16 00:15:04;;;;;;;4.17;1.30;;;15.50;99.90;;;;;;4894614;29;20200;-75
2022/05/16 00:17:48;;;;;;;2.10;1.20;;;15.40;99.90;;;;;;4889424;29;20296;-75
2022/05/16 00:20:33;;;;;;;1.63;1.10;;;15.30;99.90;;;;;;4897425;29;20254;-75
2022/05/16 00:23:17;;;;;;;2.77;1.23;;;15.30;99.90;;;;;;4895958;29;20256;-75
2022/05/16 00:26:01;;;;;;;1.67;1.30;;;15.30;99.90;;;;;;4903060;29;20218;-75
2022/05/16 00:28:46;;;;;;;3.13;1.30;;;15.30;99.90;;;;;;4895235;29;20222;-75
2022/05/16 00:31:30;;;;;;;1.50;1.00;;;15.20;99.90;;;;;;4893111;29;20203;-75
2022/05/16 00:34:15;;;;;;;4.53;1.23;;;15.20;99.90;;;;;;4909605;29;20239;-76
2022/05/16 00:37:00;;;;;;;4.03;1.17;;;15.20;99.90;;;;;;4900154;29;20271;-75
2022/05/16 00:39:44;;;;;;;4.43;1.20;;;15.10;99.90;;;;;;4900905;29;20671;-75
2022/05/16 00:42:28;;;;;;;1.73;1.00;;;15.10;99.90;;;;;;4902059;29;20218;-75
2022/05/16 00:45:16;;;;;;;3.50;1.10;;;15.10;99.90;;;;;;4914843;29;20250;-75
2022/05/16 00:48:00;;;;;;;1.77;1.13;;;15.10;99.90;;;;;;4899492;29;20228;-75
2022/05/16 00:50:44;;;;;;;1.83;1.20;;;15.10;99.90;;;;;;4887518;29;20704;-76
2022/05/16 00:53:29;;;;;;;2.17;1.20;;;15.00;99.90;;;;;;4898656;29;20267;-75
2022/05/16 00:56:14;;;;;;;1.30;1.10;;;15.00;99.90;;;;;;4913722;29;20570;-76
2022/05/16 00:58:59;;;;;;;5.20;1.40;;;14.90;99.90;;;;;;4911036;29;20226;-76
2022/05/16 01:04:49;;;;;;;2.30;1.10;;;14.90;99.90;;;;;;4925832;29;20249;-76
2022/05/16 01:07:37;;;;;;;2.90;1.17;;;14.80;99.90;;;;;;4901995;29;20250;-75
2022/05/16 01:10:22;;;;;;;7.63;1.27;;;14.80;99.90;;;;;;4917461;29;20212;-75
2022/05/16 01:13:06;;;;;;;3.83;1.20;;;14.70;99.90;;;;;;4916061;29;20194;-75
2022/05/16 01:15:50;;;;;;;2.90;1.03;;;14.60;99.90;;;;;;4903765;29;20266;-75
2022/05/16 01:18:34;;;;;;;2.37;1.40;;;14.60;99.90;;;;;;4913941;29;20755;-76
2022/05/16 01:21:30;;;;;;;3.77;1.80;;;14.60;99.90;;;;;;4906648;29;20221;-75
2022/05/16 01:24:16;;;;;;;2.70;1.23;;;14.60;99.90;;;;;;4882490;29;20236;-75
2022/05/16 01:27:00;;;;;;;1.90;1.07;;;14.50;99.90;;;;;;4920324;29;20198;-75
2022/05/16 01:29:44;;;;;;;4.53;1.30;;;14.60;99.90;;;;;;4894130;29;20198;-75
2022/05/16 01:32:28;;;;;;;1.10;1.00;;;14.40;99.90;;;;;;4907374;29;20203;-74
2022/05/16 01:35:12;;;;;;;3.50;1.40;;;14.40;99.90;;;;;;4910452;29;20267;-74
2022/05/16 01:41:22;;;;;;;2.07;0.90;;;14.50;99.90;;;;;;4915860;29;20352;-76
2022/05/16 01:44:06;;;;;;;1.90;1.20;;;14.40;99.90;;;;;;4896556;29;20666;-75
2022/05/16 01:46:50;;;;;;;4.13;1.93;;;14.40;99.90;;;;;;4911298;29;20251;-75
2022/05/16 01:49:34;;;;;;;4.17;1.37;;;14.30;99.90;;;;;;4899045;29;20199;-75
2022/05/16 01:52:18;;;;;;;7.13;1.40;;;14.30;99.90;;;;;;4911061;29;20323;-75
2022/05/16 01:55:03;;;;;;;1.83;1.10;;;14.30;99.90;;;;;;4900896;29;20183;-76
2022/05/16 01:57:47;;;;;;;4.67;1.40;;;14.30;99.90;;;;;;4906284;29;20260;-75
2022/05/16 02:00:32;;;;;;;5.23;1.60;;;14.20;99.90;;;;;;4905571;29;20262;-75
2022/05/16 02:03:17;;;;;;;1.40;0.97;;;14.20;99.90;;;;;;4895725;29;20179;-75
2022/05/16 02:06:01;;;;;;;2.40;1.20;;;14.20;99.90;;;;;;4912046;29;20330;-75
2022/05/16 02:08:48;;;;;;;2.90;1.40;;;14.10;99.90;;;;;;4899293;29;20267;-75
2022/05/16 02:11:32;;;;;;;2.13;1.20;;;14.10;99.90;;;;;;4904156;29;20244;-75
2022/05/16 02:14:16;;;;;;;1.87;1.37;;;14.10;99.90;;;;;;4888272;29;20202;-76
2022/05/16 02:17:00;;;;;;;3.00;1.33;;;14.00;99.90;;;;;;4893412;29;20314;-75
2022/05/16 02:19:44;;;;;;;3.20;1.50;;;13.90;99.90;;;;;;4900500;29;20198;-75
2022/05/16 02:25:37;;;;;;;3.77;1.30;;;13.80;99.90;;;;;;4922591;29;20242;-75
2022/05/16 02:28:22;;;;;;;4.70;1.90;;;13.80;99.90;;;;;;4907063;29;20232;-76
2022/05/16 02:31:06;;;;;;;2.57;1.20;;;13.70;99.90;;;;;;4909997;29;20225;-75
2022/05/16 02:33:50;;;;;;;1.37;1.03;;;13.70;99.90;;;;;;4903584;29;20208;-75
2022/05/16 02:36:34;;;;;;;2.17;1.23;;;13.70;99.90;;;;;;4894527;29;20211;-76
2022/05/16 02:39:19;;;;;;;2.83;1.33;;;13.70;99.90;;;;;;4892705;29;20210;-75
2022/05/16 02:42:04;;;;;;;2.37;1.30;;;13.60;99.90;;;;;;4906634;29;20214;-75
2022/05/16 02:44:52;;;;;;;2.23;1.20;;;13.60;99.90;;;;;;4919059;29;20206;-75
2022/05/16 02:47:36;;;;;;;2.73;1.30;;;13.50;99.90;;;;;;4907064;29;20229;-75
2022/05/16 02:50:23;;;;;;;2.63;1.37;;;13.40;99.90;;;;;;4922493;29;20202;-75
2022/05/16 02:53:07;;;;;;;1.67;1.13;;;13.40;99.90;;;;;;4923780;29;20262;-75
2022/05/16 02:55:51;;;;;;;3.33;1.50;;;13.40;99.90;;;;;;4912618;29;20628;-75
2022/05/16 02:58:35;;;;;;;3.80;1.67;;;13.30;99.90;;;;;;4893383;29;20665;-75
2022/05/16 03:01:19;;;;;;;2.30;1.40;;;13.30;99.90;;;;;;4895628;29;20195;-76
2022/05/16 03:04:04;;;;;;;3.03;1.73;;;13.30;99.90;;;;;;4898751;29;20243;-76
2022/05/16 03:06:48;;;;;;;3.17;1.50;;;13.30;99.90;;;;;;4914153;29;20203;-76
2022/05/16 03:09:33;;;;;;;2.43;1.40;;;13.30;99.90;;;;;;4899380;29;20239;-74
2022/05/16 03:12:17;;;;;;;2.80;1.50;;;13.20;99.90;;;;;;4906552;29;20201;-74
2022/05/16 03:15:01;;;;;;;3.27;1.67;;;13.20;99.90;;;;;;4916854;29;20199;-74
2022/05/16 03:17:46;;;;;;;2.07;1.33;;;13.20;99.90;;;;;;4907574;29;20228;-74
2022/05/16 03:20:30;;;;;;;3.77;1.50;;;13.10;99.90;;;;;;4900538;29;20191;-77
2022/05/16 03:23:14;;;;;;;3.47;1.33;;;13.10;99.90;;;;;;4915217;29;20241;-75
2022/05/16 03:25:58;;;;;;;2.63;1.47;;;13.00;99.90;;;;;;4907492;29;20198;-77
2022/05/16 03:28:42;;;;;;;4.10;1.57;;;13.10;99.90;;;;;;4922362;29;20279;-76
2022/05/16 03:31:26;;;;;;;2.13;1.50;;;13.10;99.90;;;;;;4881954;29;20206;-76
2022/05/16 03:34:12;;;;;;;3.00;1.50;;;13.00;99.90;;;;;;4918047;29;20274;-76
2022/05/16 03:36:56;;;;;;;3.13;1.47;;;13.10;99.90;;;;;;4915362;29;20207;-74
2022/05/16 03:42:43;;;;;;;4.30;1.50;;;13.00;99.90;;;;;;4926819;29;20238;-74
2022/05/16 03:45:27;;;;;;;4.07;1.83;;;13.00;99.90;;;;;;4909173;29;20199;-74
2022/05/16 03:48:11;;;;;;;4.00;1.47;;;12.90;99.90;;;;;;4907144;29;20265;-75
2022/05/16 03:50:55;;;;;;;6.37;1.53;;;12.90;99.90;;;;;;4907158;29;20215;-74
2022/05/16 03:53:46;;;;;;;2.10;1.43;;;12.90;99.90;;;;;;4914632;29;20251;-74
2022/05/16 03:56:30;;;;;;;5.20;1.50;;;12.80;99.90;;;;;;4899026;29;20223;-74
2022/05/16 03:59:14;;;;;;;3.87;1.50;;;12.80;99.90;;;;;;4916359;29;20211;-74
2022/05/16 04:01:58;;;;;;;4.37;1.73;;;12.80;99.90;;;;;;4906113;29;20234;-74
2022/05/16 04:04:43;;;;;;;1.47;1.30;;;12.80;99.90;;;;;;4905324;29;20242;-76
2022/05/16 04:07:27;;;;;;;1.77;1.40;;;12.80;99.90;;;;;;4912165;29;20283;-76
2022/05/16 04:10:11;;;;;;;5.00;2.00;;;12.80;99.90;;;;;;4897814;29;20249;-75
2022/05/16 04:12:55;;;;;;;5.50;1.63;;;12.80;99.90;;;;;;4902477;29;20196;-74
2022/05/16 04:15:39;;;;;;;3.07;1.37;;;12.70;99.90;;;;;;4915502;29;20210;-74
2022/05/16 04:18:24;;;;;;;3.53;1.53;;;12.70;99.90;;;;;;4922940;29;20211;-74
2022/05/16 04:21:08;;;;;;;4.23;1.63;;;12.70;99.90;;;;;;4903322;29;20187;-74
2022/05/16 04:23:52;;;;;;;4.23;1.83;;;12.70;99.90;;;;;;4898979;29;20179;-74
2022/05/16 04:26:36;;;;;;;2.83;1.40;;;12.70;99.90;;;;;;4892202;29;20255;-76
2022/05/16 04:29:21;;;;;;;3.30;1.40;;;12.70;99.90;;;;;;4900284;29;20190;-77
2022/05/16 04:32:05;;;;;;;3.60;1.50;;;12.70;99.90;;;;;;4900115;29;20207;-75
2022/05/16 04:34:49;;;;;;;3.83;1.57;;;12.70;99.90;;;;;;4901361;29;20548;-75
2022/05/16 04:37:34;;;;;;;7.23;1.77;;;12.70;99.90;;;;;;4904465;29;20300;-76
2022/05/16 04:40:19;;;;;;;3.90;1.50;;;12.70;99.90;;;;;;4907365;29;20210;-76
2022/05/16 04:43:03;;;;;;;2.97;1.50;;;12.70;99.90;;;;;;4921211;29;20200;-75
2022/05/16 04:45:47;;;;;;;2.23;1.23;;;12.70;99.90;;;;;;4898788;29;20246;-76
2022/05/16 04:48:32;;;;;;;2.73;1.60;;;12.80;99.90;;;;;;4897590;29;20251;-75
2022/05/16 04:51:16;;;;;;;3.60;1.37;;;12.80;99.90;;;;;;4920019;29;20258;-77
2022/05/16 04:54:00;;;;;;;2.03;1.80;;;12.90;99.90;;;;;;4910454;29;20656;-77
2022/05/16 04:56:46;;;;;;;3.10;1.37;;;12.90;99.90;;;;;;4905371;29;20262;-76
2022/05/16 04:59:31;;;;;;;2.90;1.60;;;12.90;99.90;;;;;;4893798;29;20674;-75
2022/05/16 05:02:17;;;;;;;2.80;1.30;;;13.00;99.90;;;;;;4898446;29;20199;-77
2022/05/16 05:05:03;;;;;;;2.33;1.30;;;13.10;99.90;;;;;;4898831;29;20311;-76
2022/05/16 05:07:48;;;;;;;5.43;1.40;;;13.10;99.90;;;;;;4915613;29;20727;-76
2022/05/16 05:16:38;;;;;;;4.73;1.33;;;13.30;99.90;;;;;;4914572;29;20261;-74
2022/05/16 05:19:22;;;;;;;2.53;1.40;;;13.40;99.90;;;;;;4900148;29;20276;-75
2022/05/16 05:22:07;;;;;;;3.00;1.50;;;13.50;99.90;;;;;;4900352;29;20191;-73
2022/05/16 05:24:51;;;;;;;3.40;1.60;;;13.60;99.90;;;;;;4921452;28;20182;-75
2022/05/16 05:27:35;;;;;;;3.87;1.27;;;13.70;99.90;;;;;;4935223;29;20285;-75
2022/05/16 05:30:25;;;;;;;2.23;1.50;;;13.70;99.90;;;;;;4922768;28;20179;-75
2022/05/16 05:33:09;;;;;;;5.77;1.50;;;13.80;99.90;;;;;;4891903;29;20192;-75
2022/05/16 05:35:53;;;;;;;3.10;1.37;;;13.90;99.90;;;;;;4892579;29;20286;-73
2022/05/16 05:38:38;;;;;;;2.93;1.70;;;13.90;99.90;;;;;;4890104;29;20278;-74
2022/05/16 05:41:23;;;;;;;3.73;1.60;;;14.00;99.90;;;;;;4891996;29;20235;-74
2022/05/16 05:44:07;;;;;;;2.27;1.40;;;14.10;99.90;;;;;;4891024;29;20210;-71
2022/05/16 05:46:51;;;;;;;3.40;1.50;;;14.20;99.90;;;;;;4892721;29;20199;-72
2022/05/16 05:49:36;;;;;;;2.60;1.33;;;14.30;99.90;;;;;;4904823;29;20191;-74
2022/05/16 05:52:21;;;;;;;4.77;1.77;;;14.30;99.90;;;;;;4892091;29;20279;-75
2022/05/16 05:55:06;;;;;;;4.67;1.60;;;14.50;99.90;;;;;;4894897;29;20300;-74
2022/05/16 05:57:51;;;;;;;6.23;1.93;;;14.60;99.90;;;;;;4890572;29;20212;-73
2022/05/16 06:00:35;;;;;;;4.87;1.50;;;14.70;99.90;;;;;;4896277;29;20267;-72
2022/05/16 06:03:20;;;;;;;3.70;1.50;;;14.70;99.90;;;;;;4905122;29;20187;-73
2022/05/16 06:06:04;;;;;;;2.67;1.30;;;14.80;99.90;;;;;;4905504;29;20247;-74
2022/05/16 06:08:49;;;;;;;5.97;1.77;;;14.90;99.90;;;;;;4897379;29;20327;-78
2022/05/16 06:11:33;;;;;;;2.97;1.70;;;15.00;99.90;;;;;;4893529;29;20244;-77
2022/05/16 06:14:17;;;;;;;3.60;1.60;;;15.20;99.90;;;;;;4901043;29;20184;-77
2022/05/16 06:17:01;;;;;;;3.90;1.60;;;15.30;99.90;;;;;;4898072;29;20222;-77
2022/05/16 06:19:46;;;;;;;5.27;2.00;;;15.40;99.90;;;;;;4904773;29;20275;-77
2022/05/16 06:22:34;;;;;;;5.17;1.73;;;15.40;99.90;;;;;;4903381;29;20214;-77
2022/05/16 06:25:32;;;;;;;4.77;1.60;;;15.40;99.90;;;;;;4900438;29;20179;-77
2022/05/16 06:28:20;;;;;;;4.73;1.90;;;15.50;99.90;;;;;;4897638;29;20261;-74
2022/05/16 06:31:05;;;;;;;4.20;1.77;;;15.70;99.90;;;;;;4899089;29;20191;-74
2022/05/16 06:33:49;;;;;;;2.30;1.47;;;15.80;99.90;;;;;;4888345;29;20287;-74
2022/05/16 06:36:33;;;;;;;2.20;1.63;;;15.90;99.90;;;;;;4900069;29;20260;-74
2022/05/16 06:39:17;;;;;;;7.70;1.70;;;16.00;99.90;;;;;;4899952;29;20348;-74
2022/05/16 06:42:01;;;;;;;5.93;1.80;;;16.10;99.90;;;;;;4904946;29;20812;-74
2022/05/16 06:44:46;;;;;;;5.77;1.90;;;16.20;99.90;;;;;;4899431;29;20182;-74
2022/05/16 06:47:30;;;;;;;3.50;1.67;;;16.30;99.90;;;;;;4898435;29;20691;-74
2022/05/16 06:50:14;;;;;;;2.20;1.50;;;16.30;99.90;;;;;;4899369;29;20215;-74
2022/05/16 06:52:59;;;;;;;3.87;1.70;;;16.40;99.90;;;;;;4894136;29;20203;-74
2022/05/16 06:55:43;;;;;;;5.37;1.80;;;16.50;99.90;;;;;;4880836;29;20204;-74
2022/05/16 06:58:28;;;;;;;8.37;1.80;;;16.60;99.90;;;;;;4880706;29;20212;-74
2022/05/16 07:01:12;;;;;;;3.57;1.57;;;16.70;99.90;;;;;;4910235;29;20273;-74
2022/05/16 07:03:56;;;;;;;6.27;1.80;;;16.80;99.90;;;;;;4913139;29;20265;-74
2022/05/16 07:06:40;;;;;;;3.63;1.60;;;16.80;99.90;;;;;;4932542;29;20170;-74
2022/05/16 07:09:24;;;;;;;4.70;1.73;;;17.00;99.90;;;;;;4917987;29;20202;-74
2022/05/16 07:12:09;;;;;;;5.97;1.77;;;17.10;99.90;;;;;;4913839;29;20187;-75
2022/05/16 07:14:53;;;;;;;3.87;1.87;;;17.30;99.90;;;;;;4899316;29;20187;-74
2022/05/16 07:17:37;;;;;;;3.33;1.93;;;17.40;99.90;;;;;;4898624;29;20252;-74
2022/05/16 07:20:22;;;;;;;5.23;1.90;;;17.50;99.90;;;;;;4899035;29;20179;-74
2022/05/16 07:23:06;;;;;;;5.60;1.73;;;17.60;99.90;;;;;;4898485;29;20184;-75
2022/05/16 07:28:53;;;;;;;5.07;1.50;;;17.80;99.90;;;;;;4932647;29;20218;-76
2022/05/16 07:31:37;;;;;;;4.40;1.67;;;17.80;99.90;;;;;;4915948;29;20246;-77
2022/05/16 07:34:21;;;;;;;3.10;1.30;;;17.90;99.90;;;;;;4899081;29;20202;-77
2022/05/16 07:37:07;;;;;;;2.90;1.57;;;18.00;99.90;;;;;;4896274;29;20227;-77
2022/05/16 07:39:51;;;;;;;5.67;1.60;;;18.00;99.90;;;;;;4898621;29;20207;-77
2022/05/16 07:42:36;;;;;;;6.17;1.90;;;18.20;99.90;;;;;;4892651;29;20232;-77
2022/05/16 07:45:22;;;;;;;5.80;2.03;;;18.30;99.90;;;;;;4882524;29;20203;-77
2022/05/16 07:48:06;;;;;;;3.13;1.63;;;18.40;99.90;;;;;;4927794;29;20266;-77
2022/05/16 07:50:50;;;;;;;4.63;1.83;;;18.50;99.90;;;;;;4913918;29;20592;-77
2022/05/16 07:53:34;;;;;;;3.03;1.50;;;18.50;99.90;;;;;;4901558;29;20191;-77
2022/05/16 07:56:19;;;;;;;6.20;1.70;;;18.60;99.90;;;;;;4925951;29;20218;-77
2022/05/16 07:59:03;;;;;;;5.43;1.70;;;18.80;99.90;;;;;;4916338;29;20222;-77
2022/05/16 08:01:48;;;;;;;2.97;1.73;;;18.80;99.90;;;;;;4931271;29;20190;-77
2022/05/16 08:04:32;;;;;;;5.72;2.03;;;18.90;99.90;;;;;;4879462;29;20199;-78
2022/05/16 08:07:16;;;;;;;5.40;2.40;;;19.00;99.90;;;;;;4883445;29;20204;-78
2022/05/16 08:13:06;;;;;;;7.13;1.70;;;19.20;99.90;;;;;;4917402;29;20197;-77
2022/05/16 08:15:51;;;;;;;4.72;1.60;;;19.40;99.90;;;;;;4897368;29;20731;-77
2022/05/16 08:18:36;;;;;;;5.07;1.67;;;19.50;99.90;;;;;;4896478;29;20222;-76
2022/05/16 08:21:20;;;;;;;4.50;1.63;;;19.60;99.90;;;;;;4925171;29;20195;-77
2022/05/16 08:24:07;;;;;;;4.35;1.73;;;19.60;99.90;;;;;;4883308;29;20232;-77
2022/05/16 08:26:51;;;;;;;5.72;1.70;;;19.70;99.90;;;;;;4892803;29;20267;-78
2022/05/16 08:29:36;;;;;;;5.95;1.77;;;19.70;99.90;;;;;;4899318;29;20190;-77
2022/05/16 08:32:23;;;;;;;5.72;1.73;;;19.80;99.90;;;;;;4909200;29;20213;-77
2022/05/16 08:35:09;;;;;;;3.92;1.45;;;19.90;99.90;;;;;;4939993;28;20199;-77
2022/05/16 08:41:05;;;;;;;5.35;1.40;;;20.00;99.90;;;;;;4928030;29;20218;-77
2022/05/16 08:43:55;;;;;;;6.15;1.70;;;20.10;99.90;;;;;;4885367;29;20192;-77
2022/05/16 08:47:06;;;;;;;3.58;1.80;;;20.20;99.90;;;;;;4884434;29;20187;-77
2022/05/16 08:49:55;;;;;;;4.13;1.52;;;20.30;99.90;;;;;;4872309;29;20295;-77
2022/05/16 08:52:47;;;;;;;5.28;1.42;;;20.40;99.90;;;;;;4913356;29;20501;-77
2022/05/16 08:55:40;;;;;;;5.28;1.92;;;20.40;99.90;;;;;;4900762;29;20231;-76
2022/05/16 08:58:29;;;;;;;4.65;1.70;;;20.50;99.90;;;;;;4901515;29;20215;-77
2022/05/16 09:01:20;;;;;;;7.47;1.92;;;20.60;99.90;;;;;;4914533;29;20730;-77
2022/05/16 09:04:14;;;;;;;4.93;1.50;;;20.70;99.90;;;;;;4907839;29;20200;-78
2022/05/16 09:07:22;;;;;;;5.00;1.90;;;20.80;99.90;;;;;;4920466;29;20227;-78
2022/05/16 09:10:23;;;;;;;6.82;2.53;;;20.80;99.90;;;;;;4900753;29;20247;-77
2022/05/16 09:13:25;;;;;;;4.57;1.73;;;20.90;99.90;;;;;;4894072;29;20191;-77
2022/05/16 09:16:32;;;;;;;3.42;1.88;;;21.00;99.90;;;;;;4900262;29;20222;-77
2022/05/16 09:19:48;;;;;;;4.68;1.65;;;21.10;99.90;;;;;;4886434;29;20273;-76
2022/05/16 09:22:46;;;;;;;4.03;1.95;;;21.20;99.90;;;;;;4881294;29;20192;-77
2022/05/16 09:26:11;;;;;;;6.30;1.95;;;21.20;99.90;;;;;;4896044;29;20241;-77
2022/05/16 09:29:13;;;;;;;3.83;1.90;;;21.40;99.90;;;;;;4882227;29;20228;-77
2022/05/16 09:32:11;;;;;;;2.63;1.55;;;21.50;99.90;;;;;;4895408;29;20192;-76
2022/05/16 09:34:56;;;;;;;2.60;1.52;;;21.50;99.90;;;;;;4895521;29;20242;-77
2022/05/16 09:37:40;;;;;;;6.35;1.83;;;21.60;99.90;;;;;;4881331;29;20696;-77
2022/05/16 09:40:31;;;;;;;6.45;1.80;;;21.70;99.90;;;;;;4888101;29;20179;-77
2022/05/16 09:43:20;;;;;;;6.15;2.15;;;21.80;99.90;;;;;;4903944;29;20194;-76
2022/05/16 09:46:12;;;;;;;6.05;2.30;;;21.90;99.90;;;;;;4934119;29;20182;-77
2022/05/16 09:49:22;;;;;;;3.88;1.70;;;21.90;99.90;;;;;;4909677;29;20226;-77
2022/05/16 09:52:21;;;;;;;9.02;2.00;;;22.00;99.90;;;;;;4910026;29;20222;-76
2022/05/16 09:55:12;;;;;;;5.57;1.90;;;22.00;99.90;;;;;;4919656;29;20239;-77
2022/05/16 09:58:02;;;;;;;8.45;2.20;;;22.10;99.90;;;;;;4933159;29;20250;-77
2022/05/16 10:00:58;;;;;;;4.05;1.73;;;22.20;99.90;;;;;;4909175;29;20256;-78
2022/05/16 10:03:43;;;;;;;9.60;2.33;;;22.20;99.90;;;;;;4909143;29;20549;-77
2022/05/16 10:06:34;;;;;;;5.80;1.75;;;22.40;99.90;;;;;;4886951;29;20824;-77
2022/05/16 10:09:32;;;;;;;5.57;1.77;;;22.50;99.90;;;;;;4916558;29;20246;-77
2022/05/16 10:12:21;;;;;;;5.28;2.10;;;22.60;99.90;;;;;;4897306;29;20204;-78
2022/05/16 10:15:05;;;;;;;4.82;1.90;;;22.70;99.90;;;;;;4880735;29;20211;-77
2022/05/16 10:17:52;;;;;;;5.10;2.22;;;22.70;99.90;;;;;;4881072;29;20211;-78
2022/05/16 10:20:42;;;;;;;4.30;2.13;;;22.80;99.90;;;;;;4893363;29;20194;-76
2022/05/16 10:23:36;;;;;;;5.10;2.20;;;22.90;99.90;;;;;;4912192;29;20223;-77
2022/05/16 10:26:24;;;;;;;4.25;2.05;;;22.90;99.90;;;;;;4932365;29;20182;-77
2022/05/16 10:29:14;;;;;;;2.58;1.55;;;22.90;99.90;;;;;;4916072;29;20262;-77
2022/05/16 10:35:11;;;;;;;4.53;1.83;;;23.10;99.90;;;;;;4925401;29;20353;-77
2022/05/16 10:37:58;;;;;;;5.80;1.95;;;23.10;99.90;;;;;;4918317;29;20218;-77
2022/05/16 10:40:51;;;;;;;5.25;2.35;;;23.10;99.90;;;;;;4902656;29;20713;-78
2022/05/16 10:43:52;;;;;;;5.70;2.22;;;23.10;99.90;;;;;;4908801;29;20257;-77
2022/05/16 10:46:42;;;;;;;6.07;1.73;;;23.20;99.90;;;;;;4897973;29;20213;-77
2022/05/16 10:49:32;;;;;;;5.82;1.98;;;23.20;99.90;;;;;;4901915;29;20226;-77
2022/05/16 10:52:25;;;;;;;3.75;2.10;;;23.30;99.90;;;;;;4919103;29;20196;-78
2022/05/16 10:55:10;;;;;;;7.60;2.17;;;23.40;99.90;;;;;;4913848;29;20203;-77
2022/05/16 10:58:30;;;;;;;7.05;2.42;;;23.50;99.90;;;;;;4914614;29;20211;-77
2022/05/16 11:01:53;;;;;;;8.07;2.00;;;23.60;99.90;;;;;;4926921;29;20278;-77
2022/05/16 11:05:01;;;;;;;6.95;2.10;;;23.80;99.90;;;;;;4914747;29;20301;-78
2022/05/16 11:08:11;;;;;;;5.35;2.17;;;23.90;99.90;;;;;;4898813;29;20283;-78
2022/05/16 11:11:07;;;;;;;3.97;2.30;;;23.90;99.90;;;;;;4901128;29;20223;-77
2022/05/16 11:14:04;;;;;;;5.13;2.40;;;24.00;99.90;;;;;;4883827;29;20199;-77
2022/05/16 11:16:54;;;;;;;11.75;2.33;;;24.00;99.90;;;;;;4894021;29;20903;-77
2022/05/16 11:19:55;;;;;;;20.33;2.50;;;24.10;99.90;;;;;;4893090;29;20240;-77
2022/05/16 11:22:47;;;;;;;7.63;2.35;;;24.20;99.90;;;;;;4894296;29;20267;-77
2022/05/16 11:25:53;;;;;;;10.95;2.20;;;24.30;99.90;;;;;;4895868;29;20592;-77
2022/05/16 11:29:17;;;;;;;8.73;2.10;;;24.40;99.90;;;;;;4880824;29;20288;-77
2022/05/16 11:32:16;;;;;;;3.65;2.38;;;24.50;99.90;;;;;;4890029;29;20187;-77
2022/05/16 11:35:18;;;;;;;8.32;2.58;;;24.50;99.90;;;;;;4899013;29;20219;-77
2022/05/16 11:38:22;;;;;;;7.45;2.00;;;24.60;99.90;;;;;;4917052;29;20274;-77
2022/05/16 11:41:27;;;;;;;7.22;2.20;;;24.70;99.90;;;;;;4906502;29;20237;-76
2022/05/16 11:44:31;;;;;;;7.70;2.40;;;24.60;99.90;;;;;;4915051;29;20179;-77
2022/05/16 11:47:26;;;;;;;7.85;2.40;;;24.70;99.90;;;;;;4917064;29;20602;-77
2022/05/16 11:50:23;;;;;;;6.03;2.17;;;24.70;99.90;;;;;;4913538;29;20232;-77
2022/05/16 11:53:50;;;;;;;9.82;3.22;;;24.80;99.90;;;;;;4892837;29;20176;-78
2022/05/16 12:03:06;;;;;;;9.75;2.40;;;24.90;99.90;;;;;;4931644;29;20174;-77
2022/05/16 12:06:11;;;;;;;5.38;2.17;;;25.00;99.90;;;;;;4889305;29;20283;-78
2022/05/16 12:09:17;;;;;;;5.90;2.10;;;25.10;99.90;;;;;;4906228;29;20213;-76
2022/05/16 12:12:11;;;;;;;7.20;2.38;;;25.10;99.90;;;;;;4902351;29;20237;-77
2022/05/16 12:15:17;;;;;;;12.52;2.08;;;25.20;99.90;;;;;;4898144;29;20203;-78
2022/05/16 12:18:05;;;;;;;6.80;2.80;;;25.20;99.90;;;;;;4893958;29;20283;-77
2022/05/16 12:20:50;;;;;;;9.18;2.75;;;25.20;99.90;;;;;;4913505;29;20551;-77
2022/05/16 12:23:44;;;;;;;7.40;2.72;;;25.20;99.90;;;;;;4915781;29;20424;-77
2022/05/16 12:26:28;;;;;;;7.85;2.33;;;25.30;99.90;;;;;;4887834;29;20227;-78
2022/05/16 12:29:12;;;;;;;11.40;2.63;;;25.30;99.90;;;;;;4915614;29;20910;-77
2022/05/16 12:31:56;;;;;;;12.50;2.75;;;25.30;99.90;;;;;;4909171;29;20440;-76
2022/05/16 12:34:43;;;;;;;6.18;2.00;;;25.40;99.90;;;;;;4912061;29;20207;-78
2022/05/16 12:37:28;;;;;;;7.50;2.30;;;25.50;99.90;;;;;;4897395;29;20303;-78
2022/05/16 12:40:21;;;;;;;6.47;2.20;;;25.60;99.90;;;;;;4903701;29;20208;-77
2022/05/16 12:43:38;;;;;;;10.20;2.72;;;25.60;99.90;;;;;;4889455;29;20462;-77
2022/05/16 12:46:44;;;;;;;7.55;2.05;;;25.60;99.90;;;;;;4878696;29;20184;-77
2022/05/16 12:50:05;;;;;;;8.20;2.58;;;25.70;99.90;;;;;;4910617;29;20238;-78
2022/05/16 12:53:14;;;;;;;8.10;2.30;;;25.70;99.90;;;;;;4902861;29;20199;-78
2022/05/16 12:56:30;;;;;;;13.43;2.30;;;25.80;99.90;;;;;;4901420;29;20263;-78
2022/05/16 12:59:41;;;;;;;10.10;2.77;;;25.80;99.90;;;;;;4886402;29;20410;-77
2022/05/16 13:02:29;;;;;;;12.20;3.08;;;25.80;99.90;;;;;;4895572;29;20446;-78
2022/05/16 13:05:20;;;;;;;6.43;2.42;;;25.80;99.90;;;;;;4889632;29;20214;-78
2022/05/16 13:08:21;;;;;;;6.13;2.53;;;25.80;99.90;;;;;;4908845;29;20330;-77
2022/05/16 13:11:29;;;;;;;13.23;2.63;;;25.80;99.90;;;;;;4913960;29;20671;-78
2022/05/16 13:14:39;;;;;;;8.02;2.30;;;25.80;99.90;;;;;;4897071;29;20239;-77
2022/05/16 13:17:37;;;;;;;6.07;2.30;;;25.90;99.90;;;;;;4900346;29;20625;-77
2022/05/16 13:20:34;;;;;;;6.00;2.40;;;25.90;99.90;;;;;;4899616;29;20239;-77
2022/05/16 13:23:19;;;;;;;6.32;2.17;;;25.90;99.90;;;;;;4901695;29;20200;-77
2022/05/16 13:29:23;;;;;;;6.07;2.13;;;25.90;99.90;;;;;;4913577;29;20218;-77
2022/05/16 13:32:18;;;;;;;6.55;2.47;;;25.90;99.90;;;;;;4900651;29;20628;-77
2022/05/16 13:35:05;;;;;;;7.35;2.78;;;25.90;99.90;;;;;;4899553;29;20188;-78
2022/05/16 13:37:52;;;;;;;7.43;2.30;;;25.90;99.90;;;;;;4899795;29;20206;-77
2022/05/16 13:40:43;;;;;;;4.88;2.13;;;25.90;99.90;;;;;;4918451;29;20199;-77
2022/05/16 13:43:27;;;;;;;8.25;2.40;;;26.00;99.90;;;;;;4912499;29;20274;-78
2022/05/16 13:46:12;;;;;;;4.80;1.73;;;26.00;99.90;;;;;;4919258;29;20194;-78
2022/05/16 13:49:06;;;;;;;5.00;2.20;;;26.10;99.90;;;;;;4918497;29;20224;-78
2022/05/16 13:51:52;;;;;;;7.07;2.67;;;26.10;99.90;;;;;;4913254;29;20194;-77
2022/05/16 13:54:38;;;;;;;6.22;2.50;;;26.20;99.90;;;;;;4894338;29;20668;-77
2022/05/16 13:57:23;;;;;;;7.72;2.55;;;26.30;99.90;;;;;;4895341;29;20265;-77
2022/05/16 14:00:12;;;;;;;6.30;2.50;;;26.30;99.90;;;;;;4903008;29;20430;-77
2022/05/16 14:03:00;;;;;;;7.65;2.30;;;26.40;99.90;;;;;;4918597;29;20643;-78
2022/05/16 14:05:44;;;;;;;13.68;2.78;;;26.50;99.90;;;;;;4908458;29;20200;-77
2022/05/16 14:08:41;;;;;;;7.38;2.78;;;26.60;99.90;;;;;;4895100;29;20222;-77
2022/05/16 14:11:27;;;;;;;9.20;2.80;;;26.70;99.90;;;;;;4907243;29;20184;-78
2022/05/16 14:14:15;;;;;;;6.10;2.95;;;26.80;99.90;;;;;;4917746;29;20250;-77
2022/05/16 14:17:02;;;;;;;7.07;2.35;;;26.90;99.90;;;;;;4933248;29;20203;-77
2022/05/16 14:19:46;;;;;;;10.35;2.63;;;26.80;99.90;;;;;;4918153;29;20212;-77
2022/05/16 14:22:32;;;;;;;6.40;2.20;;;26.80;99.90;;;;;;4919907;29;20228;-78
2022/05/16 14:25:30;;;;;;;6.47;2.58;;;26.70;99.90;;;;;;4932437;29;20271;-77
2022/05/16 14:28:29;;;;;;;5.47;2.40;;;26.60;99.90;;;;;;4932817;29;20210;-77
2022/05/16 14:31:21;;;;;;;6.15;2.53;;;26.60;99.90;;;;;;4917869;29;20236;-78
2022/05/16 14:34:29;;;;;;;5.43;2.25;;;26.60;99.90;;;;;;4933474;29;20654;-78
2022/05/16 14:37:13;;;;;;;10.27;3.05;;;26.60;99.90;;;;;;4898999;29;20228;-78
2022/05/16 14:40:00;;;;;;;10.73;2.97;;;26.50;99.90;;;;;;4907700;29;20191;-78
2022/05/16 14:42:46;;;;;;;8.43;2.60;;;26.50;99.90;;;;;;4888264;29;20199;-78
2022/05/16 14:48:49;;;;;;;6.15;2.63;;;26.60;99.90;;;;;;4902202;29;20403;-77
2022/05/16 14:51:34;;;;;;;7.90;2.95;;;26.70;99.90;;;;;;4897618;29;20212;-78
2022/05/16 14:54:23;;;;;;;7.05;3.50;;;26.70;99.90;;;;;;4880484;29;20506;-77
2022/05/16 14:57:07;;;;;;;8.90;2.75;;;26.70;99.90;;;;;;4894194;29;20247;-78
2022/05/16 14:59:52;;;;;;;9.55;2.53;;;26.70;99.90;;;;;;4894497;29;20175;-77
2022/05/16 15:05:39;;;;;;;7.30;2.25;;;26.70;99.90;;;;;;4933440;29;20202;-78
2022/05/16 15:08:33;;;;;;;6.25;2.47;;;26.60;99.90;;;;;;4914666;29;20290;-78
2022/05/16 15:11:21;;;;;;;9.45;3.30;;;26.50;99.90;;;;;;4909543;29;20400;-78
2022/05/16 15:14:05;;;;;;;10.02;3.13;;;26.50;99.90;;;;;;4896122;29;20677;-77
2022/05/16 15:16:49;;;;;;;8.43;2.45;;;26.40;99.90;;;;;;4895270;29;20223;-78
2022/05/16 15:19:35;;;;;;;8.98;3.35;;;26.30;99.90;;;;;;4912137;29;20758;-77
2022/05/16 15:22:19;;;;;;;5.22;2.58;;;26.40;99.90;;;;;;4888600;29;20208;-77
2022/05/16 15:25:03;;;;;;;12.93;3.03;;;26.30;99.90;;;;;;4880727;29;20197;-77